Agra, Kansas
Current Conditions -  °F | °C
As of 2:53 PM on Sunday 23 Nov 2014 (Local Time) from KHLC Reporting Station
Clear Clear  
Wind Chill:   Ceiling: Unl
Heat Index:   Visibility: 10mi
Dew Point: -6°   Wind: 26mph
Humidity: 33%   Direction: 350°N
Pressure: 29.61"   Gusts: 38mph
Location:  39.76°N, 99.12°W
Report Text: KHLC 232053Z AUTO 35023G33KT 10SM CLR 09/M06 A2961 RMK AO2 PK WND 36035/2006 SLP025 T00941061 55007
Loading
Personal Weather Stations






























Interactive Weather Map New forecast layout! Learn more

10-Day Weather Forecast

Advertisements
Track Severe Weather on mobile